Nave Neutrino — VRYU3 — position and weather

sailwx.info

Track history (hours):
 
Tides and Currents Weather Stations Pressure Air Temp Water Temp Dewpoint Dewpoint Depression Visibility Wind Speed Wind Dir Waves Ship Positions

Nave Neutrino

Last reported at 2018-May-26 15:32 UTC. Time now 2018-Jun-19 15:48 UTC.
Position N 01°28' E 103°07'.
Warning: this ship's position is 24 days out of date.

Length 333 m; draft 11 m.

Type: Ship. MMSI: 477409000.

Date/timePositionNaut miles runAvg speedWind from/ knotsBaromVisibWave heightAir tempDewpointWater temp
2018-May-26 15:32N 01°28' E 103°07'110.7
2018-May-26 15:26N 01°27' E 103°08'511.3
2018-May-26 15:00N 01°24' E 103°11'611.0
2018-May-26 14:29N 01°21' E 103°16'610.9
2018-May-26 13:54N 01°17' E 103°21'410.3
2018-May-26 13:30N 01°15' E 103°24'511.0
2018-May-26 13:00N 01°13' E 103°30'5 9.5
2018-May-26 12:31N 01°12' E 103°34'3 6.4
2018-May-26 12:00N 01°12' E 103°38'4 8.8
2018-May-26 11:30N 01°10' E 103°41'5 9.2
2018-May-26 11:00N 01°09' E 103°46'713.1
2018-May-26 10:30N 01°12' E 103°52'510.3
2018-May-26 10:00N 01°14' E 103°57'611.3
2018-May-26 09:30N 01°16' E 104°02'5 9.3
2018-May-26 09:00N 01°17' E 104°07'510.7
2018-May-26 08:29N 01°17' E 104°12'611.4
2018-May-26 07:58N 01°18' E 104°18'511.3
2018-May-26 07:30N 01°21' E 104°22'711.5
2018-May-26 06:54N 01°26' E 104°28'  
Track history (hours):
 
Tides and Currents Weather Stations Pressure Air Temp Water Temp Dewpoint Dewpoint Depression Visibility Wind Speed Wind Dir Waves Ship Positions

Nave Neutrino

Last reported at 2018-May-26 15:32 UTC. Time now 2018-Jun-19 15:48 UTC.
Position N 01°28' E 103°07'.
Warning: this ship's position is 24 days out of date.

Length 333 m; draft 11 m.

Type: Ship. MMSI: 477409000.

Date/timePositionNaut miles runAvg speedWind from/ knotsBaromVisibWave heightAir tempDewpointWater temp
2018-May-26 15:32N 01°28' E 103°07'110.7
2018-May-26 15:26N 01°27' E 103°08'511.3
2018-May-26 15:00N 01°24' E 103°11'611.0
2018-May-26 14:29N 01°21' E 103°16'610.9
2018-May-26 13:54N 01°17' E 103°21'410.3
2018-May-26 13:30N 01°15' E 103°24'511.0
2018-May-26 13:00N 01°13' E 103°30'5 9.5
2018-May-26 12:31N 01°12' E 103°34'3 6.4
2018-May-26 12:00N 01°12' E 103°38'4 8.8
2018-May-26 11:30N 01°10' E 103°41'5 9.2
2018-May-26 11:00N 01°09' E 103°46'713.1
2018-May-26 10:30N 01°12' E 103°52'510.3
2018-May-26 10:00N 01°14' E 103°57'611.3
2018-May-26 09:30N 01°16' E 104°02'5 9.3
2018-May-26 09:00N 01°17' E 104°07'510.7
2018-May-26 08:29N 01°17' E 104°12'611.4
2018-May-26 07:58N 01°18' E 104°18'511.3
2018-May-26 07:30N 01°21' E 104°22'711.5
2018-May-26 06:54N 01°26' E 104°28'  

Dump ship's entire track history